sensor_id;sensor_type;location;lat;lon;timestamp;P1;durP1;ratioP1;P2;durP2;ratioP2
37781;SDS011;23621;50.878;4.584;2023-07-08T00:02:04;5.55;;;5.00;;
37781;SDS011;23621;50.878;4.584;2023-07-08T00:04:58;7.00;;;5.13;;
37781;SDS011;23621;50.878;4.584;2023-07-08T00:07:45;6.13;;;5.32;;
37781;SDS011;23621;50.878;4.584;2023-07-08T00:10:34;8.07;;;4.78;;
37781;SDS011;23621;50.878;4.584;2023-07-08T00:13:21;6.47;;;4.82;;
37781;SDS011;23621;50.878;4.584;2023-07-08T00:16:18;6.40;;;5.20;;
37781;SDS011;23621;50.878;4.584;2023-07-08T00:19:07;6.43;;;5.68;;
37781;SDS011;23621;50.878;4.584;2023-07-08T00:21:56;6.72;;;5.40;;
37781;SDS011;23621;50.878;4.584;2023-07-08T00:24:43;7.47;;;5.25;;
37781;SDS011;23621;50.878;4.584;2023-07-08T00:27:30;6.32;;;5.53;;
37781;SDS011;23621;50.878;4.584;2023-07-08T00:33:05;7.43;;;5.38;;
37781;SDS011;23621;50.878;4.584;2023-07-08T00:35:53;6.07;;;5.05;;
37781;SDS011;23621;50.878;4.584;2023-07-08T00:38:40;7.15;;;5.43;;
37781;SDS011;23621;50.878;4.584;2023-07-08T00:44:27;6.28;;;5.05;;
37781;SDS011;23621;50.878;4.584;2023-07-08T00:47:15;9.27;;;5.63;;
37781;SDS011;23621;50.878;4.584;2023-07-08T00:50:03;6.50;;;5.82;;
37781;SDS011;23621;50.878;4.584;2023-07-08T00:53:16;7.07;;;5.53;;
37781;SDS011;23621;50.878;4.584;2023-07-08T00:56:26;7.60;;;5.13;;
37781;SDS011;23621;50.878;4.584;2023-07-08T00:59:27;8.05;;;5.90;;
37781;SDS011;23621;50.878;4.584;2023-07-08T01:02:55;7.50;;;5.32;;
37781;SDS011;23621;50.878;4.584;2023-07-08T01:05:44;9.98;;;5.72;;
37781;SDS011;23621;50.878;4.584;2023-07-08T01:08:33;7.00;;;5.25;;
37781;SDS011;23621;50.878;4.584;2023-07-08T01:11:20;6.10;;;5.50;;
37781;SDS011;23621;50.878;4.584;2023-07-08T01:14:09;8.10;;;5.28;;
37781;SDS011;23621;50.878;4.584;2023-07-08T01:17:03;6.53;;;5.45;;
37781;SDS011;23621;50.878;4.584;2023-07-08T01:19:50;7.15;;;5.72;;
37781;SDS011;23621;50.878;4.584;2023-07-08T01:22:37;7.22;;;5.60;;
37781;SDS011;23621;50.878;4.584;2023-07-08T01:25:26;8.05;;;5.82;;
37781;SDS011;23621;50.878;4.584;2023-07-08T01:28:14;7.65;;;5.88;;
37781;SDS011;23621;50.878;4.584;2023-07-08T01:31:01;6.65;;;5.82;;
37781;SDS011;23621;50.878;4.584;2023-07-08T01:33:51;7.50;;;5.63;;
37781;SDS011;23621;50.878;4.584;2023-07-08T01:36:40;7.93;;;5.65;;
37781;SDS011;23621;50.878;4.584;2023-07-08T01:39:30;7.50;;;5.38;;
37781;SDS011;23621;50.878;4.584;2023-07-08T01:42:18;7.32;;;6.30;;
37781;SDS011;23621;50.878;4.584;2023-07-08T01:45:12;7.38;;;5.88;;
37781;SDS011;23621;50.878;4.584;2023-07-08T01:48:02;8.85;;;5.60;;
37781;SDS011;23621;50.878;4.584;2023-07-08T01:50:59;8.77;;;6.30;;
37781;SDS011;23621;50.878;4.584;2023-07-08T01:53:49;6.55;;;5.68;;
37781;SDS011;23621;50.878;4.584;2023-07-08T01:56:37;10.02;;;5.82;;
37781;SDS011;23621;50.878;4.584;2023-07-08T01:59:24;6.13;;;5.53;;
37781;SDS011;23621;50.878;4.584;2023-07-08T02:02:12;6.05;;;5.45;;
37781;SDS011;23621;50.878;4.584;2023-07-08T02:04:59;6.20;;;5.60;;
37781;SDS011;23621;50.878;4.584;2023-07-08T02:07:46;6.70;;;5.45;;
37781;SDS011;23621;50.878;4.584;2023-07-08T02:10:33;6.88;;;5.13;;
37781;SDS011;23621;50.878;4.584;2023-07-08T02:13:20;6.20;;;5.60;;
37781;SDS011;23621;50.878;4.584;2023-07-08T02:16:09;7.18;;;5.10;;
37781;SDS011;23621;50.878;4.584;2023-07-08T02:18:56;6.88;;;5.60;;
37781;SDS011;23621;50.878;4.584;2023-07-08T02:21:43;8.07;;;5.50;;
37781;SDS011;23621;50.878;4.584;2023-07-08T02:24:30;6.47;;;5.63;;
37781;SDS011;23621;50.878;4.584;2023-07-08T02:27:18;6.43;;;5.78;;
37781;SDS011;23621;50.878;4.584;2023-07-08T02:30:05;6.93;;;5.72;;
37781;SDS011;23621;50.878;4.584;2023-07-08T02:32:53;5.97;;;5.38;;
37781;SDS011;23621;50.878;4.584;2023-07-08T02:35:44;6.80;;;5.60;;
37781;SDS011;23621;50.878;4.584;2023-07-08T02:38:32;7.82;;;6.03;;
37781;SDS011;23621;50.878;4.584;2023-07-08T02:41:19;6.35;;;5.70;;
37781;SDS011;23621;50.878;4.584;2023-07-08T02:44:06;9.65;;;5.97;;
37781;SDS011;23621;50.878;4.584;2023-07-08T02:46:53;7.28;;;5.93;;
37781;SDS011;23621;50.878;4.584;2023-07-08T02:49:41;6.65;;;5.88;;
37781;SDS011;23621;50.878;4.584;2023-07-08T02:52:28;7.50;;;5.80;;
37781;SDS011;23621;50.878;4.584;2023-07-08T02:55:15;8.32;;;5.53;;
37781;SDS011;23621;50.878;4.584;2023-07-08T02:58:02;8.10;;;5.45;;
37781;SDS011;23621;50.878;4.584;2023-07-08T03:00:53;7.90;;;5.75;;
37781;SDS011;23621;50.878;4.584;2023-07-08T03:03:41;8.50;;;5.93;;
37781;SDS011;23621;50.878;4.584;2023-07-08T03:06:28;7.97;;;5.45;;
37781;SDS011;23621;50.878;4.584;2023-07-08T03:09:15;9.70;;;5.97;;
37781;SDS011;23621;50.878;4.584;2023-07-08T03:12:05;7.10;;;5.82;;
37781;SDS011;23621;50.878;4.584;2023-07-08T03:14:53;7.95;;;5.72;;
37781;SDS011;23621;50.878;4.584;2023-07-08T03:17:40;6.22;;;5.63;;
37781;SDS011;23621;50.878;4.584;2023-07-08T03:20:28;6.22;;;5.60;;
37781;SDS011;23621;50.878;4.584;2023-07-08T03:23:19;7.45;;;5.53;;
37781;SDS011;23621;50.878;4.584;2023-07-08T03:26:06;7.50;;;5.72;;
37781;SDS011;23621;50.878;4.584;2023-07-08T03:28:53;7.80;;;6.05;;
37781;SDS011;23621;50.878;4.584;2023-07-08T03:31:40;9.20;;;5.63;;
37781;SDS011;23621;50.878;4.584;2023-07-08T03:34:28;6.10;;;5.50;;
37781;SDS011;23621;50.878;4.584;2023-07-08T03:37:15;7.80;;;5.90;;
37781;SDS011;23621;50.878;4.584;2023-07-08T03:40:02;6.80;;;6.10;;
37781;SDS011;23621;50.878;4.584;2023-07-08T03:42:50;8.13;;;5.93;;
37781;SDS011;23621;50.878;4.584;2023-07-08T03:45:37;8.10;;;6.25;;
37781;SDS011;23621;50.878;4.584;2023-07-08T03:48:24;7.10;;;6.30;;
37781;SDS011;23621;50.878;4.584;2023-07-08T03:51:33;6.30;;;5.65;;
37781;SDS011;23621;50.878;4.584;2023-07-08T03:54:22;6.55;;;5.60;;
37781;SDS011;23621;50.878;4.584;2023-07-08T03:57:11;8.10;;;6.47;;
37781;SDS011;23621;50.878;4.584;2023-07-08T03:59:58;7.72;;;5.97;;
37781;SDS011;23621;50.878;4.584;2023-07-08T04:02:45;8.13;;;5.93;;
37781;SDS011;23621;50.878;4.584;2023-07-08T04:05:33;7.03;;;5.97;;
37781;SDS011;23621;50.878;4.584;2023-07-08T04:08:20;7.43;;;6.20;;
37781;SDS011;23621;50.878;4.584;2023-07-08T04:11:11;6.80;;;5.88;;
37781;SDS011;23621;50.878;4.584;2023-07-08T04:14:01;7.60;;;5.90;;
37781;SDS011;23621;50.878;4.584;2023-07-08T04:16:52;7.13;;;6.00;;
37781;SDS011;23621;50.878;4.584;2023-07-08T04:19:44;10.77;;;6.82;;
37781;SDS011;23621;50.878;4.584;2023-07-08T04:22:31;8.02;;;6.60;;
37781;SDS011;23621;50.878;4.584;2023-07-08T04:25:18;9.07;;;6.90;;
37781;SDS011;23621;50.878;4.584;2023-07-08T04:28:06;8.52;;;6.45;;
37781;SDS011;23621;50.878;4.584;2023-07-08T04:30:53;7.75;;;6.40;;
37781;SDS011;23621;50.878;4.584;2023-07-08T04:33:40;6.68;;;5.97;;
37781;SDS011;23621;50.878;4.584;2023-07-08T04:36:28;7.32;;;6.13;;
37781;SDS011;23621;50.878;4.584;2023-07-08T04:39:15;8.85;;;6.63;;
37781;SDS011;23621;50.878;4.584;2023-07-08T04:42:02;8.57;;;6.47;;
37781;SDS011;23621;50.878;4.584;2023-07-08T04:44:49;7.28;;;6.53;;
37781;SDS011;23621;50.878;4.584;2023-07-08T04:47:36;8.30;;;6.43;;
37781;SDS011;23621;50.878;4.584;2023-07-08T04:50:24;8.48;;;6.47;;
37781;SDS011;23621;50.878;4.584;2023-07-08T04:53:11;7.10;;;6.40;;
37781;SDS011;23621;50.878;4.584;2023-07-08T04:55:59;6.60;;;5.88;;
37781;SDS011;23621;50.878;4.584;2023-07-08T04:58:47;10.55;;;7.40;;
37781;SDS011;23621;50.878;4.584;2023-07-08T05:01:34;7.25;;;6.20;;
37781;SDS011;23621;50.878;4.584;2023-07-08T05:04:22;8.15;;;6.47;;
37781;SDS011;23621;50.878;4.584;2023-07-08T05:07:09;8.00;;;6.28;;
37781;SDS011;23621;50.878;4.584;2023-07-08T05:09:57;6.35;;;5.72;;
37781;SDS011;23621;50.878;4.584;2023-07-08T05:12:44;8.82;;;6.43;;
37781;SDS011;23621;50.878;4.584;2023-07-08T05:15:33;7.22;;;6.50;;
37781;SDS011;23621;50.878;4.584;2023-07-08T05:18:22;10.80;;;6.50;;
37781;SDS011;23621;50.878;4.584;2023-07-08T05:21:09;9.32;;;6.20;;
37781;SDS011;23621;50.878;4.584;2023-07-08T05:23:57;8.38;;;6.70;;
37781;SDS011;23621;50.878;4.584;2023-07-08T05:26:44;7.95;;;6.72;;
37781;SDS011;23621;50.878;4.584;2023-07-08T05:29:31;7.43;;;6.57;;
37781;SDS011;23621;50.878;4.584;2023-07-08T05:32:18;9.35;;;7.38;;
37781;SDS011;23621;50.878;4.584;2023-07-08T05:35:07;9.15;;;7.47;;
37781;SDS011;23621;50.878;4.584;2023-07-08T05:37:56;7.97;;;6.32;;
37781;SDS011;23621;50.878;4.584;2023-07-08T05:40:47;9.85;;;7.22;;
37781;SDS011;23621;50.878;4.584;2023-07-08T05:43:39;8.30;;;7.00;;
37781;SDS011;23621;50.878;4.584;2023-07-08T05:46:27;10.30;;;7.15;;
37781;SDS011;23621;50.878;4.584;2023-07-08T05:49:14;9.80;;;7.82;;
37781;SDS011;23621;50.878;4.584;2023-07-08T05:52:01;7.75;;;6.60;;
37781;SDS011;23621;50.878;4.584;2023-07-08T05:54:57;9.60;;;7.72;;
37781;SDS011;23621;50.878;4.584;2023-07-08T05:57:44;8.43;;;7.45;;
37781;SDS011;23621;50.878;4.584;2023-07-08T06:00:31;8.93;;;7.13;;
37781;SDS011;23621;50.878;4.584;2023-07-08T06:03:26;9.88;;;7.00;;
37781;SDS011;23621;50.878;4.584;2023-07-08T06:06:14;8.88;;;7.45;;
37781;SDS011;23621;50.878;4.584;2023-07-08T06:09:01;11.00;;;7.07;;
37781;SDS011;23621;50.878;4.584;2023-07-08T06:11:48;9.45;;;7.47;;
37781;SDS011;23621;50.878;4.584;2023-07-08T06:14:35;7.78;;;6.97;;
37781;SDS011;23621;50.878;4.584;2023-07-08T06:17:22;8.38;;;7.20;;
37781;SDS011;23621;50.878;4.584;2023-07-08T06:20:10;7.75;;;6.43;;
37781;SDS011;23621;50.878;4.584;2023-07-08T06:22:57;7.57;;;6.82;;
37781;SDS011;23621;50.878;4.584;2023-07-08T06:25:44;8.77;;;7.13;;
37781;SDS011;23621;50.878;4.584;2023-07-08T06:28:32;7.85;;;6.28;;
37781;SDS011;23621;50.878;4.584;2023-07-08T06:31:19;7.82;;;6.38;;
37781;SDS011;23621;50.878;4.584;2023-07-08T06:34:06;7.78;;;6.78;;
37781;SDS011;23621;50.878;4.584;2023-07-08T06:36:54;8.15;;;6.68;;
37781;SDS011;23621;50.878;4.584;2023-07-08T06:39:41;8.25;;;6.50;;
37781;SDS011;23621;50.878;4.584;2023-07-08T06:42:28;7.82;;;6.03;;
37781;SDS011;23621;50.878;4.584;2023-07-08T06:45:16;8.43;;;6.50;;
37781;SDS011;23621;50.878;4.584;2023-07-08T06:48:03;7.72;;;6.22;;
37781;SDS011;23621;50.878;4.584;2023-07-08T06:50:51;7.32;;;6.22;;
37781;SDS011;23621;50.878;4.584;2023-07-08T06:53:38;8.73;;;6.00;;
37781;SDS011;23621;50.878;4.584;2023-07-08T06:56:25;8.05;;;6.13;;
37781;SDS011;23621;50.878;4.584;2023-07-08T06:59:12;6.32;;;5.68;;
37781;SDS011;23621;50.878;4.584;2023-07-08T07:01:59;7.63;;;6.38;;
37781;SDS011;23621;50.878;4.584;2023-07-08T07:04:46;7.50;;;5.93;;
37781;SDS011;23621;50.878;4.584;2023-07-08T07:07:33;6.88;;;5.95;;
37781;SDS011;23621;50.878;4.584;2023-07-08T07:10:21;7.78;;;6.50;;
37781;SDS011;23621;50.878;4.584;2023-07-08T07:13:09;8.63;;;6.20;;
37781;SDS011;23621;50.878;4.584;2023-07-08T07:15:56;8.88;;;6.07;;
37781;SDS011;23621;50.878;4.584;2023-07-08T07:18:43;7.50;;;6.22;;
37781;SDS011;23621;50.878;4.584;2023-07-08T07:21:31;9.60;;;6.38;;
37781;SDS011;23621;50.878;4.584;2023-07-08T07:24:18;6.57;;;5.93;;
37781;SDS011;23621;50.878;4.584;2023-07-08T07:27:06;9.05;;;6.35;;
37781;SDS011;23621;50.878;4.584;2023-07-08T07:29:54;7.00;;;5.88;;
37781;SDS011;23621;50.878;4.584;2023-07-08T07:32:42;7.93;;;6.45;;
37781;SDS011;23621;50.878;4.584;2023-07-08T07:35:29;6.90;;;6.15;;
37781;SDS011;23621;50.878;4.584;2023-07-08T07:38:16;7.57;;;6.43;;
37781;SDS011;23621;50.878;4.584;2023-07-08T07:41:04;9.18;;;6.43;;
37781;SDS011;23621;50.878;4.584;2023-07-08T07:43:53;9.43;;;6.40;;
37781;SDS011;23621;50.878;4.584;2023-07-08T07:46:40;7.70;;;6.13;;
37781;SDS011;23621;50.878;4.584;2023-07-08T07:49:27;7.32;;;6.30;;
37781;SDS011;23621;50.878;4.584;2023-07-08T07:52:14;8.05;;;6.43;;
37781;SDS011;23621;50.878;4.584;2023-07-08T07:55:05;8.05;;;6.50;;
37781;SDS011;23621;50.878;4.584;2023-07-08T07:57:54;7.60;;;6.72;;
37781;SDS011;23621;50.878;4.584;2023-07-08T08:00:41;8.15;;;6.75;;
37781;SDS011;23621;50.878;4.584;2023-07-08T08:03:29;10.07;;;6.72;;
37781;SDS011;23621;50.878;4.584;2023-07-08T08:06:17;6.88;;;6.05;;
37781;SDS011;23621;50.878;4.584;2023-07-08T08:09:05;7.65;;;6.32;;
37781;SDS011;23621;50.878;4.584;2023-07-08T08:11:53;8.48;;;5.82;;
37781;SDS011;23621;50.878;4.584;2023-07-08T08:14:41;8.40;;;6.47;;
37781;SDS011;23621;50.878;4.584;2023-07-08T08:17:28;8.25;;;6.55;;
37781;SDS011;23621;50.878;4.584;2023-07-08T08:20:15;8.23;;;7.20;;
37781;SDS011;23621;50.878;4.584;2023-07-08T08:23:03;10.07;;;6.93;;
37781;SDS011;23621;50.878;4.584;2023-07-08T08:25:50;8.75;;;6.25;;
37781;SDS011;23621;50.878;4.584;2023-07-08T08:28:37;8.32;;;6.18;;
37781;SDS011;23621;50.878;4.584;2023-07-08T08:31:25;7.00;;;5.97;;
37781;SDS011;23621;50.878;4.584;2023-07-08T08:34:12;8.85;;;7.07;;
37781;SDS011;23621;50.878;4.584;2023-07-08T08:36:59;7.55;;;6.43;;
37781;SDS011;23621;50.878;4.584;2023-07-08T08:39:47;7.95;;;6.50;;
37781;SDS011;23621;50.878;4.584;2023-07-08T08:42:39;8.75;;;6.35;;
37781;SDS011;23621;50.878;4.584;2023-07-08T08:45:29;7.65;;;6.47;;
37781;SDS011;23621;50.878;4.584;2023-07-08T08:48:27;9.73;;;6.85;;
37781;SDS011;23621;50.878;4.584;2023-07-08T08:51:19;9.00;;;6.45;;
37781;SDS011;23621;50.878;4.584;2023-07-08T08:54:06;9.73;;;6.65;;
37781;SDS011;23621;50.878;4.584;2023-07-08T08:59:54;9.27;;;6.88;;
37781;SDS011;23621;50.878;4.584;2023-07-08T09:02:49;7.03;;;6.30;;
37781;SDS011;23621;50.878;4.584;2023-07-08T09:05:49;7.88;;;6.45;;
37781;SDS011;23621;50.878;4.584;2023-07-08T09:08:36;8.23;;;6.63;;
37781;SDS011;23621;50.878;4.584;2023-07-08T09:14:24;9.82;;;6.15;;
37781;SDS011;23621;50.878;4.584;2023-07-08T09:17:15;7.85;;;6.22;;
37781;SDS011;23621;50.878;4.584;2023-07-08T09:20:25;9.48;;;5.90;;
37781;SDS011;23621;50.878;4.584;2023-07-08T09:23:21;9.30;;;6.95;;
37781;SDS011;23621;50.878;4.584;2023-07-08T09:26:15;12.35;;;6.25;;
37781;SDS011;23621;50.878;4.584;2023-07-08T09:29:09;8.65;;;6.63;;
37781;SDS011;23621;50.878;4.584;2023-07-08T09:31:57;8.05;;;6.28;;
37781;SDS011;23621;50.878;4.584;2023-07-08T09:34:52;9.40;;;6.78;;
37781;SDS011;23621;50.878;4.584;2023-07-08T09:37:44;9.90;;;7.30;;
37781;SDS011;23621;50.878;4.584;2023-07-08T09:40:33;6.78;;;6.10;;
37781;SDS011;23621;50.878;4.584;2023-07-08T09:43:28;7.47;;;6.07;;
37781;SDS011;23621;50.878;4.584;2023-07-08T09:46:29;10.18;;;6.40;;
37781;SDS011;23621;50.878;4.584;2023-07-08T09:49:34;7.10;;;6.40;;
37781;SDS011;23621;50.878;4.584;2023-07-08T09:52:22;10.70;;;6.97;;
37781;SDS011;23621;50.878;4.584;2023-07-08T09:55:12;7.90;;;6.70;;
37781;SDS011;23621;50.878;4.584;2023-07-08T09:57:59;8.70;;;7.35;;
37781;SDS011;23621;50.878;4.584;2023-07-08T10:00:53;8.80;;;6.18;;
37781;SDS011;23621;50.878;4.584;2023-07-08T10:03:46;10.77;;;6.88;;
37781;SDS011;23621;50.878;4.584;2023-07-08T10:06:34;7.10;;;6.05;;
37781;SDS011;23621;50.878;4.584;2023-07-08T10:09:24;7.70;;;6.35;;
37781;SDS011;23621;50.878;4.584;2023-07-08T10:12:11;7.97;;;6.68;;
37781;SDS011;23621;50.878;4.584;2023-07-08T10:15:01;9.80;;;6.40;;
37781;SDS011;23621;50.878;4.584;2023-07-08T10:17:54;8.75;;;6.88;;
37781;SDS011;23621;50.878;4.584;2023-07-08T10:20:46;7.57;;;6.53;;
37781;SDS011;23621;50.878;4.584;2023-07-08T10:26:48;7.60;;;6.80;;
37781;SDS011;23621;50.878;4.584;2023-07-08T10:29:54;8.98;;;6.53;;
37781;SDS011;23621;50.878;4.584;2023-07-08T10:33:13;8.27;;;6.90;;
37781;SDS011;23621;50.878;4.584;2023-07-08T10:42:43;8.73;;;6.35;;
37781;SDS011;23621;50.878;4.584;2023-07-08T10:49:10;9.25;;;6.85;;
37781;SDS011;23621;50.878;4.584;2023-07-08T10:52:24;8.10;;;6.93;;
37781;SDS011;23621;50.878;4.584;2023-07-08T10:58:29;8.25;;;6.63;;
37781;SDS011;23621;50.878;4.584;2023-07-08T11:07:44;9.30;;;7.10;;
37781;SDS011;23621;50.878;4.584;2023-07-08T11:10:44;11.52;;;6.70;;
37781;SDS011;23621;50.878;4.584;2023-07-08T11:13:34;7.78;;;6.53;;
37781;SDS011;23621;50.878;4.584;2023-07-08T11:16:31;7.13;;;6.43;;
37781;SDS011;23621;50.878;4.584;2023-07-08T11:19:24;9.43;;;6.50;;
37781;SDS011;23621;50.878;4.584;2023-07-08T11:22:25;9.02;;;6.65;;
37781;SDS011;23621;50.878;4.584;2023-07-08T11:25:19;9.27;;;6.60;;
37781;SDS011;23621;50.878;4.584;2023-07-08T11:28:08;7.65;;;6.50;;
37781;SDS011;23621;50.878;4.584;2023-07-08T11:31:01;8.10;;;6.20;;
37781;SDS011;23621;50.878;4.584;2023-07-08T11:33:49;8.30;;;6.00;;
37781;SDS011;23621;50.878;4.584;2023-07-08T11:36:38;6.80;;;5.68;;
37781;SDS011;23621;50.878;4.584;2023-07-08T11:39:33;7.85;;;6.32;;
37781;SDS011;23621;50.878;4.584;2023-07-08T11:42:38;7.10;;;6.07;;
37781;SDS011;23621;50.878;4.584;2023-07-08T11:45:38;7.45;;;6.20;;
37781;SDS011;23621;50.878;4.584;2023-07-08T11:48:29;7.70;;;6.10;;
37781;SDS011;23621;50.878;4.584;2023-07-08T11:51:20;8.75;;;6.57;;
37781;SDS011;23621;50.878;4.584;2023-07-08T11:54:17;6.82;;;5.53;;
37781;SDS011;23621;50.878;4.584;2023-07-08T11:57:23;8.30;;;5.65;;
37781;SDS011;23621;50.878;4.584;2023-07-08T12:00:18;9.32;;;6.05;;
37781;SDS011;23621;50.878;4.584;2023-07-08T12:03:19;6.75;;;5.47;;
37781;SDS011;23621;50.878;4.584;2023-07-08T12:09:14;8.18;;;5.50;;
37781;SDS011;23621;50.878;4.584;2023-07-08T12:12:52;7.30;;;5.60;;
37781;SDS011;23621;50.878;4.584;2023-07-08T12:15:23;6.72;;;4.72;;
37781;SDS011;23621;50.878;4.584;2023-07-08T12:18:15;8.65;;;5.57;;
37781;SDS011;23621;50.878;4.584;2023-07-08T12:21:07;6.45;;;5.07;;
37781;SDS011;23621;50.878;4.584;2023-07-08T12:23:55;6.72;;;5.20;;
37781;SDS011;23621;50.878;4.584;2023-07-08T12:26:42;6.88;;;5.88;;
37781;SDS011;23621;50.878;4.584;2023-07-08T12:29:30;8.27;;;5.80;;
37781;SDS011;23621;50.878;4.584;2023-07-08T12:32:18;9.13;;;6.03;;
37781;SDS011;23621;50.878;4.584;2023-07-08T12:35:23;7.57;;;5.93;;
37781;SDS011;23621;50.878;4.584;2023-07-08T12:38:23;8.27;;;5.43;;
37781;SDS011;23621;50.878;4.584;2023-07-08T12:41:23;7.05;;;5.15;;
37781;SDS011;23621;50.878;4.584;2023-07-08T12:44:18;7.88;;;5.68;;
37781;SDS011;23621;50.878;4.584;2023-07-08T12:47:10;6.43;;;5.82;;
37781;SDS011;23621;50.878;4.584;2023-07-08T12:49:57;5.78;;;5.10;;
37781;SDS011;23621;50.878;4.584;2023-07-08T12:52:45;10.77;;;5.20;;
37781;SDS011;23621;50.878;4.584;2023-07-08T12:55:33;6.22;;;4.53;;
37781;SDS011;23621;50.878;4.584;2023-07-08T12:58:24;8.80;;;3.97;;
37781;SDS011;23621;50.878;4.584;2023-07-08T13:01:20;5.72;;;3.53;;
37781;SDS011;23621;50.878;4.584;2023-07-08T13:04:11;5.07;;;3.10;;
37781;SDS011;23621;50.878;4.584;2023-07-08T13:06:59;5.20;;;2.67;;
37781;SDS011;23621;50.878;4.584;2023-07-08T13:09:47;8.32;;;3.00;;
37781;SDS011;23621;50.878;4.584;2023-07-08T13:12:36;4.65;;;3.40;;
37781;SDS011;23621;50.878;4.584;2023-07-08T13:15:28;6.50;;;3.50;;
37781;SDS011;23621;50.878;4.584;2023-07-08T13:21:18;6.47;;;3.85;;
37781;SDS011;23621;50.878;4.584;2023-07-08T13:24:09;5.95;;;3.78;;
37781;SDS011;23621;50.878;4.584;2023-07-08T13:27:00;5.78;;;3.88;;
37781;SDS011;23621;50.878;4.584;2023-07-08T13:29:54;5.75;;;3.65;;
37781;SDS011;23621;50.878;4.584;2023-07-08T13:32:54;5.63;;;3.90;;
37781;SDS011;23621;50.878;4.584;2023-07-08T13:35:42;5.07;;;3.72;;
37781;SDS011;23621;50.878;4.584;2023-07-08T13:38:34;5.65;;;3.60;;
37781;SDS011;23621;50.878;4.584;2023-07-08T13:41:24;5.57;;;3.65;;
37781;SDS011;23621;50.878;4.584;2023-07-08T13:44:11;5.68;;;3.80;;
37781;SDS011;23621;50.878;4.584;2023-07-08T13:46:59;7.28;;;4.05;;
37781;SDS011;23621;50.878;4.584;2023-07-08T13:49:47;7.75;;;4.20;;
37781;SDS011;23621;50.878;4.584;2023-07-08T13:52:37;6.57;;;4.00;;
37781;SDS011;23621;50.878;4.584;2023-07-08T13:55:25;4.53;;;3.72;;
37781;SDS011;23621;50.878;4.584;2023-07-08T13:58:15;4.32;;;3.70;;
37781;SDS011;23621;50.878;4.584;2023-07-08T14:01:04;5.25;;;3.65;;
37781;SDS011;23621;50.878;4.584;2023-07-08T14:03:55;5.07;;;3.50;;
37781;SDS011;23621;50.878;4.584;2023-07-08T14:06:43;6.40;;;3.72;;
37781;SDS011;23621;50.878;4.584;2023-07-08T14:09:31;5.55;;;3.78;;
37781;SDS011;23621;50.878;4.584;2023-07-08T14:12:18;5.70;;;4.20;;
37781;SDS011;23621;50.878;4.584;2023-07-08T14:15:09;6.78;;;3.70;;
37781;SDS011;23621;50.878;4.584;2023-07-08T14:17:56;4.93;;;3.50;;
37781;SDS011;23621;50.878;4.584;2023-07-08T14:20:43;5.25;;;3.83;;
37781;SDS011;23621;50.878;4.584;2023-07-08T14:23:31;4.63;;;3.85;;
37781;SDS011;23621;50.878;4.584;2023-07-08T14:26:18;7.13;;;4.40;;
37781;SDS011;23621;50.878;4.584;2023-07-08T14:29:05;5.35;;;4.30;;
37781;SDS011;23621;50.878;4.584;2023-07-08T14:31:52;5.50;;;4.10;;
37781;SDS011;23621;50.878;4.584;2023-07-08T14:34:40;5.88;;;3.90;;
37781;SDS011;23621;50.878;4.584;2023-07-08T14:37:28;5.90;;;4.13;;
37781;SDS011;23621;50.878;4.584;2023-07-08T14:43:18;5.15;;;3.80;;
37781;SDS011;23621;50.878;4.584;2023-07-08T14:46:16;5.15;;;4.18;;
37781;SDS011;23621;50.878;4.584;2023-07-08T14:49:08;5.60;;;3.75;;
37781;SDS011;23621;50.878;4.584;2023-07-08T14:52:02;5.22;;;3.72;;
37781;SDS011;23621;50.878;4.584;2023-07-08T14:54:50;5.68;;;3.78;;
37781;SDS011;23621;50.878;4.584;2023-07-08T14:57:42;5.35;;;3.67;;
37781;SDS011;23621;50.878;4.584;2023-07-08T15:00:32;6.35;;;3.95;;
37781;SDS011;23621;50.878;4.584;2023-07-08T15:03:19;7.13;;;4.47;;
37781;SDS011;23621;50.878;4.584;2023-07-08T15:06:10;5.97;;;4.30;;
37781;SDS011;23621;50.878;4.584;2023-07-08T15:08:57;5.13;;;4.30;;
37781;SDS011;23621;50.878;4.584;2023-07-08T15:11:45;6.47;;;4.55;;
37781;SDS011;23621;50.878;4.584;2023-07-08T15:14:34;4.95;;;4.25;;
37781;SDS011;23621;50.878;4.584;2023-07-08T15:17:21;4.10;;;3.70;;
37781;SDS011;23621;50.878;4.584;2023-07-08T15:20:09;5.55;;;4.15;;
37781;SDS011;23621;50.878;4.584;2023-07-08T15:23:01;4.05;;;3.42;;
37781;SDS011;23621;50.878;4.584;2023-07-08T15:25:49;5.85;;;4.07;;
37781;SDS011;23621;50.878;4.584;2023-07-08T15:28:49;5.28;;;3.72;;
37781;SDS011;23621;50.878;4.584;2023-07-08T15:31:37;5.07;;;3.58;;
37781;SDS011;23621;50.878;4.584;2023-07-08T15:34:25;4.05;;;3.40;;
37781;SDS011;23621;50.878;4.584;2023-07-08T15:37:12;3.92;;;3.47;;
37781;SDS011;23621;50.878;4.584;2023-07-08T15:39:59;4.85;;;3.60;;
37781;SDS011;23621;50.878;4.584;2023-07-08T15:42:47;4.13;;;3.45;;
37781;SDS011;23621;50.878;4.584;2023-07-08T15:45:40;5.13;;;3.60;;
37781;SDS011;23621;50.878;4.584;2023-07-08T15:48:28;4.00;;;3.70;;
37781;SDS011;23621;50.878;4.584;2023-07-08T15:51:15;4.53;;;3.90;;
37781;SDS011;23621;50.878;4.584;2023-07-08T15:54:05;4.40;;;3.60;;
37781;SDS011;23621;50.878;4.584;2023-07-08T15:56:52;5.88;;;3.80;;
37781;SDS011;23621;50.878;4.584;2023-07-08T15:59:40;5.95;;;4.50;;
37781;SDS011;23621;50.878;4.584;2023-07-08T16:02:28;6.95;;;4.40;;
37781;SDS011;23621;50.878;4.584;2023-07-08T16:05:17;5.63;;;3.90;;
37781;SDS011;23621;50.878;4.584;2023-07-08T16:08:05;5.53;;;4.20;;
37781;SDS011;23621;50.878;4.584;2023-07-08T16:11:01;5.63;;;4.45;;
37781;SDS011;23621;50.878;4.584;2023-07-08T16:13:50;6.25;;;4.60;;
37781;SDS011;23621;50.878;4.584;2023-07-08T16:16:38;4.82;;;4.30;;
37781;SDS011;23621;50.878;4.584;2023-07-08T16:19:25;7.00;;;4.22;;
37781;SDS011;23621;50.878;4.584;2023-07-08T16:22:12;6.05;;;4.40;;
37781;SDS011;23621;50.878;4.584;2023-07-08T16:24:59;7.45;;;4.60;;
37781;SDS011;23621;50.878;4.584;2023-07-08T16:27:47;5.07;;;4.50;;
37781;SDS011;23621;50.878;4.584;2023-07-08T16:30:36;6.05;;;4.43;;
37781;SDS011;23621;50.878;4.584;2023-07-08T16:33:24;5.15;;;4.32;;
37781;SDS011;23621;50.878;4.584;2023-07-08T16:36:12;5.80;;;4.88;;
37781;SDS011;23621;50.878;4.584;2023-07-08T16:39:01;5.97;;;4.43;;
37781;SDS011;23621;50.878;4.584;2023-07-08T16:41:50;5.20;;;4.70;;
37781;SDS011;23621;50.878;4.584;2023-07-08T16:44:37;5.13;;;4.47;;
37781;SDS011;23621;50.878;4.584;2023-07-08T16:47:24;5.30;;;4.80;;
37781;SDS011;23621;50.878;4.584;2023-07-08T16:50:12;5.55;;;4.78;;
37781;SDS011;23621;50.878;4.584;2023-07-08T16:53:00;5.22;;;4.30;;
37781;SDS011;23621;50.878;4.584;2023-07-08T16:55:48;6.75;;;4.30;;
37781;SDS011;23621;50.878;4.584;2023-07-08T16:58:35;7.22;;;5.10;;
37781;SDS011;23621;50.878;4.584;2023-07-08T17:01:23;6.10;;;4.35;;
37781;SDS011;23621;50.878;4.584;2023-07-08T17:04:12;4.97;;;4.35;;
37781;SDS011;23621;50.878;4.584;2023-07-08T17:07:00;5.68;;;4.53;;
37781;SDS011;23621;50.878;4.584;2023-07-08T17:09:47;9.30;;;4.78;;
37781;SDS011;23621;50.878;4.584;2023-07-08T17:12:35;6.22;;;4.50;;
37781;SDS011;23621;50.878;4.584;2023-07-08T17:15:25;5.72;;;4.68;;
37781;SDS011;23621;50.878;4.584;2023-07-08T17:18:19;5.13;;;4.63;;
37781;SDS011;23621;50.878;4.584;2023-07-08T17:21:09;5.95;;;5.28;;
37781;SDS011;23621;50.878;4.584;2023-07-08T17:24:00;7.68;;;4.57;;
37781;SDS011;23621;50.878;4.584;2023-07-08T17:26:48;6.70;;;4.80;;
37781;SDS011;23621;50.878;4.584;2023-07-08T17:29:35;8.15;;;5.07;;
37781;SDS011;23621;50.878;4.584;2023-07-08T17:32:23;5.68;;;4.35;;
37781;SDS011;23621;50.878;4.584;2023-07-08T17:35:11;9.02;;;5.03;;
37781;SDS011;23621;50.878;4.584;2023-07-08T17:38:00;4.88;;;4.35;;
37781;SDS011;23621;50.878;4.584;2023-07-08T17:40:47;6.97;;;3.95;;
37781;SDS011;23621;50.878;4.584;2023-07-08T17:43:34;5.55;;;4.10;;
37781;SDS011;23621;50.878;4.584;2023-07-08T17:46:23;7.47;;;4.30;;
37781;SDS011;23621;50.878;4.584;2023-07-08T17:49:13;4.50;;;4.10;;